createdAt,value
2022-09-23T00:05:32.773Z,100688.44
2022-09-23T00:15:40.688Z,100691.00
2022-09-23T00:25:44.363Z,100680.41
2022-09-23T00:35:50.108Z,100680.06
2022-09-23T00:45:54.845Z,100665.59
2022-09-23T00:56:04.773Z,100674.47
2022-09-23T01:06:09.292Z,100667.03
2022-09-23T01:16:23.277Z,100658.94
2022-09-23T01:26:49.845Z,100655.03
2022-09-23T01:37:00.220Z,100647.91
2022-09-23T01:47:10.959Z,100642.00
2022-09-23T01:57:20.406Z,100648.06
2022-09-23T02:07:30.351Z,100636.31
2022-09-23T02:17:40.610Z,100634.00
2022-09-23T02:27:56.306Z,100631.41
2022-09-23T02:38:18.326Z,100630.59
2022-09-23T02:48:26.311Z,100623.31
2022-09-23T02:58:31.428Z,100610.72
2022-09-23T03:08:50.398Z,100610.16
2022-09-23T03:19:05.561Z,100594.47
2022-09-23T03:29:11.400Z,100589.06
2022-09-23T03:39:29.564Z,100589.22
2022-09-23T03:49:39.175Z,100577.84
2022-09-23T03:59:44.307Z,100577.75
2022-09-23T04:09:47.927Z,100564.22
2022-09-23T04:19:53.001Z,100569.53
2022-09-23T04:29:56.579Z,100564.97
2022-09-23T04:40:01.864Z,100572.97
2022-09-23T04:50:06.561Z,100573.22
2022-09-23T05:00:15.314Z,100569.44
2022-09-23T05:10:19.373Z,100572.25
2022-09-23T05:20:24.400Z,100573.22
2022-09-23T05:30:28.548Z,100570.72
2022-09-23T05:40:33.618Z,100571.25
2022-09-23T05:50:37.710Z,100576.69
2022-09-23T06:00:44.256Z,100579.09
2022-09-23T06:10:53.510Z,100583.44
2022-09-23T06:21:05.379Z,100559.34
2022-09-23T06:31:13.602Z,100570.28
2022-09-23T06:41:21.210Z,100570.38
2022-09-23T06:51:24.858Z,100549.28
2022-09-23T07:01:29.898Z,100555.72
2022-09-23T07:11:33.735Z,100554.09
2022-09-23T07:21:38.800Z,100547.59
2022-09-23T07:31:42.587Z,100544.56
2022-09-23T07:41:48.090Z,100543.91
2022-09-23T07:51:52.743Z,100533.31
2022-09-23T08:02:00.672Z,100547.19
2022-09-23T08:12:04.887Z,100543.84
2022-09-23T08:22:09.934Z,100533.66
2022-09-23T08:32:13.546Z,100530.44
2022-09-23T08:42:24.664Z,100534.31
2022-09-23T08:52:35.804Z,100529.19
2022-09-23T09:02:41.232Z,100518.22
2022-09-23T09:12:47.572Z,100519.00
2022-09-23T09:22:57.405Z,100495.75
2022-09-23T09:33:05.038Z,100497.13
2022-09-23T09:43:23.128Z,100469.91
2022-09-23T09:53:30.410Z,100471.41
2022-09-23T10:03:40.833Z,100453.00
2022-09-23T10:14:05.086Z,100448.13
2022-09-23T10:24:22.912Z,100429.25
2022-09-23T10:34:28.888Z,100435.81
2022-09-23T10:44:58.432Z,100424.88
2022-09-23T10:55:18.906Z,100415.22
2022-09-23T11:05:39.998Z,100399.50
2022-09-23T11:15:55.683Z,100373.88
2022-09-23T11:26:20.940Z,100364.25
2022-09-23T11:36:32.641Z,100348.50
2022-09-23T11:46:42.477Z,100336.50
2022-09-23T11:56:49.339Z,100315.19
2022-09-23T12:07:01.246Z,100311.50
2022-09-23T12:17:26.883Z,100296.94
2022-09-23T12:27:38.927Z,100284.25
2022-09-23T12:37:43.273Z,100283.34
2022-09-23T12:47:48.213Z,100273.03
2022-09-23T12:57:51.928Z,100259.69
2022-09-23T13:08:04.517Z,100247.06
2022-09-23T13:18:41.263Z,100234.44
2022-09-23T13:28:57.212Z,100239.69
2022-09-23T13:39:16.322Z,100227.50
2022-09-23T13:49:25.361Z,100208.63
2022-09-23T13:59:31.722Z,100201.72
2022-09-23T14:09:42.323Z,100187.28
2022-09-23T14:19:46.610Z,100170.09
2022-09-23T14:29:51.878Z,100156.38
2022-09-23T14:39:57.890Z,100165.56
2022-09-23T14:50:20.045Z,100169.25
2022-09-23T15:00:23.856Z,100160.75
2022-09-23T15:10:33.918Z,100168.16
2022-09-23T15:20:37.855Z,100146.84
2022-09-23T15:30:42.949Z,100156.84
2022-09-23T15:40:46.801Z,100141.16
2022-09-23T15:50:55.340Z,100144.41
2022-09-23T16:00:59.827Z,100142.50
2022-09-23T16:11:06.070Z,100143.28
2022-09-23T16:21:12.441Z,100149.06
2022-09-23T16:31:17.774Z,100151.16
2022-09-23T16:41:21.615Z,100130.25
2022-09-23T16:51:29.438Z,100139.91
2022-09-23T17:01:51.042Z,100150.31
2022-09-23T17:12:04.342Z,100160.53
2022-09-23T17:22:08.109Z,100157.47
2022-09-23T17:32:13.130Z,100141.84
2022-09-23T17:42:18.130Z,100162.88
2022-09-23T17:52:23.120Z,100158.81
2022-09-23T18:02:27.118Z,100156.91
2022-09-23T18:12:32.104Z,100156.50
2022-09-23T18:22:35.775Z,100158.09
2022-09-23T18:32:40.956Z,100157.56
2022-09-23T18:42:44.622Z,100153.66
2022-09-23T18:52:49.825Z,100158.97
2022-09-23T19:02:53.785Z,100149.22
2022-09-23T19:12:59.064Z,100163.69
2022-09-23T19:23:02.756Z,100170.25
2022-09-23T19:33:09.905Z,100168.19
2022-09-23T19:43:14.267Z,100168.75
2022-09-23T19:53:19.401Z,100153.44
2022-09-23T20:03:23.060Z,100151.47
2022-09-23T20:13:32.503Z,100147.94
2022-09-23T20:23:36.166Z,100154.34
2022-09-23T20:33:42.192Z,100149.41
2022-09-23T20:43:45.811Z,100145.50
2022-09-23T20:53:52.721Z,100143.56
2022-09-23T21:03:56.744Z,100142.69
2022-09-23T21:14:02.143Z,100149.31
2022-09-23T21:24:40.050Z,100150.63
2022-09-23T21:34:34.466Z,100124.59
2022-09-23T21:44:38.076Z,100127.53
2022-09-23T21:54:43.080Z,100128.84
2022-09-23T22:04:46.833Z,100127.06
2022-09-23T22:14:52.186Z,100137.81
2022-09-23T22:24:55.853Z,100137.75
2022-09-23T22:35:00.807Z,100138.91
2022-09-23T22:45:06.253Z,100147.31
2022-09-23T22:55:12.576Z,100143.19
2022-09-23T23:05:16.440Z,100152.50
2022-09-23T23:15:21.391Z,100145.88
2022-09-23T23:25:25.334Z,100128.59
2022-09-23T23:35:30.299Z,100111.97
2022-09-23T23:45:33.937Z,100112.88
2022-09-23T23:55:40.125Z,100112.19
